Aviation Digital Data Service (ADDS)

Output produced by METARs form (0219 UTC 03 July 2022)
found at http://www.aviationweather.gov/metar/data/
 
METAR text: KIND 030154Z 36009KT 10SM OVC140 26/11 A3004 RMK AO2 SLP167 T02560106
Conditions at: KIND (INDIANAPOLIS , IN, US) observed 0154 UTC 03 July 2022
Temperature: 25.6°C (78°F)
Dewpoint: 10.6°C (51°F) [RH = 39%]
Pressure (altimeter): 30.04 inches Hg (1017.4 mb)
[Sea-level pressure: 1016.7 mb]
Winds: from the N (360 degrees) at 10 MPH (9 knots; 4.6 m/s)
Visibility: 10 or more miles (16+ km)
Ceiling: 14000 feet AGL
Clouds: overcast cloud deck at 14000 feet AGL
Weather: no significant weather observed at this time

Forecast for: KIND (INDIANAPOLIS , IN, US)
Text: KIND 022320Z 0300/0406 35005KT P6SM FEW060
Forecast period: 0000 to 0100 UTC 03 July 2022
Forecast type: FROM: standard forecast or significant change
Winds: from the N (350 degrees) at 6 MPH (5 knots; 2.6 m/s)
Visibility: 6 or more miles (10+ km)
Ceiling: at least 12,000 feet AGL
Clouds: few clouds at 6000 feet AGL
Weather: no significant weather forecast for this period
Text: FM030100 02005KT P6SM SCT200
Forecast period: 0100 UTC 03 July 2022 to 0600 UTC 04 July 2022
Forecast type: FROM: standard forecast or significant change
Winds: from the NNE (20 degrees) at 6 MPH (5 knots; 2.6 m/s)
Visibility: 6 or more miles (10+ km)
Ceiling: at least 12,000 feet AGL
Clouds: scattered clouds at 20000 feet AGL
Weather: no significant weather forecast for this period